Bandana, Kentucky
Current Conditions -  °F | °C
As of 4:15 AM on Thursday 29 Jan 2015 (Local Time) from KM30 Reporting Station
Clear Clear  
Wind Chill: 53°   Ceiling: Unl
Heat Index: 53°   Visibility: 10mi
Dew Point: 37°   Wind: 12mph
Humidity: 56%   Direction: 210°SSW
Pressure: 29.89"   Gusts: 21mph
Location:  37.15°N, 88.95°W
Report Text: KM30 291015Z AUTO 21010G18KT 10SM CLR 12/03 A2989 RMK AO2 T01150030
Loading
Personal Weather Stations






























Interactive Weather Map New forecast layout! Learn more

10-Day Weather Forecast

Advertisements
Track Severe Weather on mobile